Creighton, MO (64739)

7:37 PM CDT on July 27, 2016 (GMT -0500)
Creighton | | Change Station

Elev 804 ft 38.49 °N, 94.08 °W | Updated 1 minute ago

Clear
Clear
83.7 °F
Feels Like 95 °F
N
0.0
Wind Variable Wind from SW

Today
High -- | Low -- °F
--% Chance of Precip.
Yesterday
High -- | Low -- °F
Precip. -- in
Pressure 29.91 in
Visibility 10.0 miles
Clouds Clear
Heat Index 95 °F
Dew Point 79 °F
Humidity 85%
Rainfall 0.00 in
Snow Depth Not available.
6:14 AM 8:30 PM
Last Quarter, 38% visible
METAR KGLY 280035Z AUTO 00000KT 10SM CLR 30/24 A2991 RMK AO2
Pressure 29.91 in
Visibility 10.0 miles
Clouds Clear
Heat Index 95 °F
Dew Point 79 °F
Humidity 85%
Rainfall 0.00 in
Snow Depth Not available.
6:14 AM 8:30 PM
Last Quarter, 38% visible
METAR KGLY 280035Z AUTO 00000KT 10SM CLR 30/24 A2991 RMK AO2

10-Day Weather Forecast

Almanac

Astronomy

Jul. 27, 2016 Rise Set
Actual Time
Civil Twilight
Nautical Twilight
Astronomical Twilight
Moon
Length of Visible Light
Length of Day
Tomorrow will be .
, % of the Moon is Illuminated

Today's Extremes

State Highs State Lows

Community

WunderPhotos

Upload Photos

1,927,978 photos uploaded!

WunderBlog® & News

Nearby

Air Quality

  Air Quality AQ Index Pollutant
Not available.

Snow Depth

Station Depth Elevation

Earthquake Activity

City Distance Mag. Time & Date
Minimum magnitude displayed is 2.5.

Coastal Water Temperatures

Place Temperature

Stations

Nearby Weather Stations

Station Location Temp. Windchill Dew Point Humidity Wind Precip. Elev Updated Type
                   

Watches & Warnings

There are currently no watches in effect.